createdAt,value
2018-12-29T00:00:43.949Z,13.90
2018-12-29T00:03:13.351Z,16.77
2018-12-29T00:05:42.759Z,19.43
2018-12-29T00:08:12.205Z,19.27
2018-12-29T00:10:41.562Z,20.50
2018-12-29T00:13:10.928Z,22.37
2018-12-29T00:15:40.413Z,21.63
2018-12-29T00:18:09.758Z,21.57
2018-12-29T00:20:39.220Z,22.60
2018-12-29T00:23:08.739Z,22.23
2018-12-29T00:25:38.163Z,23.97
2018-12-29T00:28:07.539Z,19.97
2018-12-29T00:30:37.000Z,20.27
2018-12-29T00:33:06.665Z,18.13
2018-12-29T00:35:36.135Z,20.20
2018-12-29T00:38:05.629Z,20.73
2018-12-29T00:40:34.994Z,19.77
2018-12-29T00:43:04.468Z,20.03
2018-12-29T00:45:33.959Z,19.70
2018-12-29T00:48:03.400Z,19.03
2018-12-29T00:50:32.808Z,18.40
2018-12-29T00:53:02.225Z,17.43
2018-12-29T00:55:31.680Z,17.87
2018-12-29T00:58:01.048Z,18.90
2018-12-29T01:00:30.517Z,17.63
2018-12-29T01:02:59.949Z,19.73
2018-12-29T01:05:29.378Z,21.43
2018-12-29T01:07:58.892Z,22.57
2018-12-29T01:10:28.312Z,25.13
2018-12-29T01:12:57.677Z,25.77
2018-12-29T01:15:27.199Z,25.17
2018-12-29T01:17:56.613Z,23.73
2018-12-29T01:20:25.968Z,23.13
2018-12-29T01:22:55.427Z,26.43
2018-12-29T01:25:24.793Z,25.37
2018-12-29T01:27:54.180Z,24.23
2018-12-29T01:30:23.596Z,21.73
2018-12-29T01:32:52.971Z,17.17
2018-12-29T01:35:22.385Z,15.33
2018-12-29T01:37:51.827Z,16.33
2018-12-29T01:40:21.296Z,15.37
2018-12-29T01:42:50.655Z,16.60
2018-12-29T01:45:20.145Z,18.50
2018-12-29T01:47:49.597Z,21.47
2018-12-29T01:50:19.032Z,18.40
2018-12-29T01:52:48.513Z,15.50
2018-12-29T01:55:17.937Z,13.73
2018-12-29T01:57:47.337Z,16.90
2018-12-29T02:00:16.787Z,16.53
2018-12-29T02:02:46.209Z,13.27
2018-12-29T02:05:15.569Z,13.00
2018-12-29T02:07:44.977Z,13.00
2018-12-29T02:10:14.656Z,26.10
2018-12-29T02:12:44.073Z,16.13
2018-12-29T02:15:13.545Z,13.30
2018-12-29T02:17:42.893Z,14.77
2018-12-29T02:20:12.250Z,17.33
2018-12-29T02:22:41.837Z,14.13
2018-12-29T02:25:11.155Z,14.47
2018-12-29T02:27:40.478Z,14.83
2018-12-29T02:30:09.984Z,16.87
2018-12-29T02:32:41.129Z,14.37
2018-12-29T02:35:10.566Z,12.07
2018-12-29T02:37:40.073Z,15.27
2018-12-29T02:40:09.511Z,16.37
2018-12-29T02:42:38.939Z,15.23
2018-12-29T02:45:08.446Z,14.40
2018-12-29T02:47:38.029Z,14.93
2018-12-29T02:50:07.478Z,14.90
2018-12-29T02:52:36.950Z,15.57
2018-12-29T02:55:06.493Z,17.53
2018-12-29T02:57:35.857Z,16.50
2018-12-29T03:00:05.423Z,16.13
2018-12-29T03:02:34.829Z,16.70
2018-12-29T03:05:04.373Z,16.93
2018-12-29T03:07:33.873Z,17.77
2018-12-29T03:10:03.561Z,17.77
2018-12-29T03:12:32.933Z,16.87
2018-12-29T03:15:02.346Z,16.43
2018-12-29T03:17:31.709Z,15.63
2018-12-29T03:20:01.047Z,16.33
2018-12-29T03:22:30.510Z,15.87
2018-12-29T03:25:00.023Z,15.60
2018-12-29T03:27:29.421Z,15.60
2018-12-29T03:29:58.875Z,13.60
2018-12-29T03:32:28.292Z,13.53
2018-12-29T03:34:57.670Z,12.77
2018-12-29T03:37:27.057Z,11.80
2018-12-29T03:39:56.408Z,11.50
2018-12-29T03:42:25.868Z,11.90
2018-12-29T03:44:55.318Z,11.17
2018-12-29T03:47:24.672Z,11.93
2018-12-29T03:49:54.050Z,12.30
2018-12-29T03:52:23.526Z,12.80
2018-12-29T03:54:53.069Z,12.77
2018-12-29T03:57:22.454Z,13.30
2018-12-29T03:59:51.894Z,13.50
2018-12-29T04:02:21.256Z,13.17
2018-12-29T04:04:50.716Z,11.33
2018-12-29T04:07:20.113Z,11.50
2018-12-29T04:09:49.465Z,12.30
2018-12-29T04:12:21.481Z,11.47
2018-12-29T04:14:51.038Z,12.37
2018-12-29T04:17:20.378Z,13.00
2018-12-29T04:19:49.769Z,13.03
2018-12-29T04:22:19.210Z,12.93
2018-12-29T04:24:48.586Z,14.50
2018-12-29T04:27:17.957Z,14.77
2018-12-29T04:29:47.389Z,16.53
2018-12-29T04:32:16.751Z,19.10
2018-12-29T04:34:46.224Z,17.93
2018-12-29T04:37:15.698Z,17.90
2018-12-29T04:39:45.059Z,18.27
2018-12-29T04:42:14.497Z,18.60
2018-12-29T04:44:43.975Z,22.20
2018-12-29T04:47:13.340Z,21.30
2018-12-29T04:49:42.698Z,19.37
2018-12-29T04:52:12.211Z,18.80
2018-12-29T04:54:41.578Z,18.27
2018-12-29T04:57:10.911Z,18.87
2018-12-29T04:59:40.352Z,19.27
2018-12-29T05:02:09.771Z,19.53
2018-12-29T05:04:39.119Z,19.63
2018-12-29T05:07:08.547Z,21.00
2018-12-29T05:09:37.897Z,22.50
2018-12-29T05:12:07.273Z,26.23
2018-12-29T05:14:37.143Z,34.37
2018-12-29T05:17:06.576Z,39.70
2018-12-29T05:19:35.926Z,42.60
2018-12-29T05:22:05.381Z,44.43
2018-12-29T05:24:34.714Z,46.60
2018-12-29T05:27:04.063Z,45.93
2018-12-29T05:29:33.550Z,44.43
2018-12-29T05:32:03.475Z,40.80
2018-12-29T05:34:32.885Z,35.93
2018-12-29T05:37:02.322Z,34.73
2018-12-29T05:39:31.726Z,34.67
2018-12-29T05:42:01.042Z,32.63
2018-12-29T05:44:30.449Z,29.43
2018-12-29T05:46:59.818Z,24.17
2018-12-29T05:49:29.268Z,19.90
2018-12-29T05:51:58.709Z,18.27
2018-12-29T05:54:28.054Z,18.37
2018-12-29T05:56:57.404Z,18.60
2018-12-29T05:59:26.811Z,19.93
2018-12-29T06:01:56.262Z,18.77
2018-12-29T06:04:25.702Z,18.27
2018-12-29T06:06:55.138Z,16.37
2018-12-29T06:09:24.594Z,14.93
2018-12-29T06:11:53.974Z,14.80
2018-12-29T06:14:23.361Z,14.47
2018-12-29T06:16:52.796Z,11.63
2018-12-29T06:19:22.193Z,8.23
2018-12-29T06:21:51.641Z,7.63
2018-12-29T06:24:20.985Z,7.20
2018-12-29T06:26:50.299Z,6.53
2018-12-29T06:29:19.829Z,6.40
2018-12-29T06:31:49.455Z,5.93
2018-12-29T06:34:18.902Z,5.50
2018-12-29T06:36:48.420Z,10.90
2018-12-29T06:39:17.885Z,8.50
2018-12-29T06:41:47.343Z,8.47
2018-12-29T06:44:16.850Z,8.70
2018-12-29T06:46:46.246Z,7.70
2018-12-29T06:49:15.598Z,7.27
2018-12-29T06:51:45.089Z,6.20
2018-12-29T06:54:14.542Z,5.60
2018-12-29T06:56:44.007Z,6.43
2018-12-29T06:59:13.449Z,7.03
2018-12-29T07:01:42.809Z,7.67
2018-12-29T07:04:12.169Z,7.33
2018-12-29T07:06:41.585Z,7.50
2018-12-29T07:09:10.956Z,8.23
2018-12-29T07:11:40.346Z,9.87
2018-12-29T07:14:09.801Z,9.20
2018-12-29T07:16:42.406Z,10.13
2018-12-29T07:19:10.322Z,13.20
2018-12-29T07:21:39.735Z,13.63
2018-12-29T07:24:09.111Z,13.13
2018-12-29T07:26:38.527Z,13.90
2018-12-29T07:29:07.961Z,13.40
2018-12-29T07:31:37.534Z,13.97
2018-12-29T07:34:06.981Z,16.10
2018-12-29T07:36:36.410Z,24.40
2018-12-29T07:39:07.215Z,27.10
2018-12-29T07:41:36.667Z,28.83
2018-12-29T07:44:06.072Z,31.63
2018-12-29T07:46:35.498Z,31.03
2018-12-29T07:49:04.942Z,32.43
2018-12-29T07:51:34.400Z,29.60
2018-12-29T07:54:03.869Z,31.40
2018-12-29T07:56:33.231Z,30.00
2018-12-29T07:59:02.705Z,29.70
2018-12-29T08:01:32.068Z,31.03
2018-12-29T08:04:01.524Z,32.20
2018-12-29T08:06:31.020Z,32.17
2018-12-29T08:09:00.494Z,35.13
2018-12-29T08:11:29.918Z,40.50
2018-12-29T08:13:59.405Z,42.90
2018-12-29T08:16:28.824Z,46.40
2018-12-29T08:18:58.160Z,48.17
2018-12-29T08:21:27.596Z,48.17
2018-12-29T08:23:57.040Z,49.03
2018-12-29T08:26:26.506Z,46.73
2018-12-29T08:28:56.029Z,41.20
2018-12-29T08:31:25.470Z,34.43
2018-12-29T08:33:54.937Z,30.47
2018-12-29T08:36:24.434Z,32.77
2018-12-29T08:38:53.857Z,30.47
2018-12-29T08:41:23.211Z,28.23
2018-12-29T08:43:52.659Z,24.27
2018-12-29T08:46:21.986Z,20.03
2018-12-29T08:48:51.344Z,19.23
2018-12-29T08:51:20.816Z,17.00
2018-12-29T08:53:50.258Z,16.10
2018-12-29T08:56:19.619Z,13.80
2018-12-29T08:58:49.011Z,13.17
2018-12-29T09:01:18.344Z,11.70
2018-12-29T09:03:47.723Z,10.43
2018-12-29T09:06:17.269Z,11.00
2018-12-29T09:08:46.616Z,8.53
2018-12-29T09:11:15.950Z,7.33
2018-12-29T09:13:45.412Z,7.50
2018-12-29T09:16:14.773Z,7.17
2018-12-29T09:18:49.710Z,6.70
2018-12-29T09:21:15.236Z,6.90
2018-12-29T09:23:44.570Z,7.47
2018-12-29T09:26:14.002Z,11.33
2018-12-29T09:28:43.380Z,13.87
2018-12-29T09:31:12.731Z,14.60
2018-12-29T09:33:42.235Z,13.87
2018-12-29T09:36:11.739Z,15.47
2018-12-29T09:38:41.100Z,14.57
2018-12-29T09:41:10.537Z,15.03
2018-12-29T09:43:39.965Z,15.10
2018-12-29T09:46:09.295Z,14.40
2018-12-29T09:48:38.637Z,11.30
2018-12-29T09:51:08.111Z,10.37
2018-12-29T09:53:37.486Z,10.80
2018-12-29T09:56:06.862Z,10.67
2018-12-29T09:58:36.798Z,12.67
2018-12-29T10:01:06.155Z,18.30
2018-12-29T10:03:35.620Z,13.40
2018-12-29T10:06:05.100Z,10.30
2018-12-29T10:08:34.456Z,15.13
2018-12-29T10:11:03.892Z,16.70
2018-12-29T10:13:33.296Z,18.00
2018-12-29T10:16:02.660Z,20.17
2018-12-29T10:18:32.102Z,22.60
2018-12-29T10:21:01.600Z,24.27
2018-12-29T10:23:31.053Z,23.57
2018-12-29T10:26:00.433Z,26.97
2018-12-29T10:28:30.227Z,27.67
2018-12-29T10:30:59.689Z,30.33
2018-12-29T10:33:29.067Z,25.87
2018-12-29T10:35:58.575Z,22.80
2018-12-29T10:38:28.068Z,18.13
2018-12-29T10:40:57.462Z,18.60
2018-12-29T10:43:26.892Z,21.37
2018-12-29T10:45:56.307Z,24.90
2018-12-29T10:48:25.737Z,27.40
2018-12-29T10:50:55.136Z,29.70
2018-12-29T10:53:24.580Z,29.23
2018-12-29T10:55:53.988Z,32.53
2018-12-29T10:58:23.430Z,32.53
2018-12-29T11:00:52.791Z,34.77
2018-12-29T11:03:22.491Z,36.23
2018-12-29T11:05:51.965Z,28.93
2018-12-29T11:08:21.415Z,31.57
2018-12-29T11:10:50.843Z,31.43
2018-12-29T11:13:20.361Z,38.00
2018-12-29T11:15:49.777Z,40.97
2018-12-29T11:18:19.202Z,40.57
2018-12-29T11:20:48.579Z,38.30
2018-12-29T11:23:17.943Z,39.23
2018-12-29T11:25:47.377Z,40.07
2018-12-29T11:28:16.859Z,39.63
2018-12-29T11:30:47.693Z,38.17
2018-12-29T11:33:17.509Z,39.70
2018-12-29T11:35:47.071Z,43.20
2018-12-29T11:38:16.525Z,41.03
2018-12-29T11:40:45.948Z,39.77
2018-12-29T11:43:16.610Z,39.53
2018-12-29T11:45:46.084Z,39.13
2018-12-29T11:48:18.848Z,38.87
2018-12-29T11:50:48.258Z,36.83
2018-12-29T11:53:17.705Z,37.13
2018-12-29T11:55:47.680Z,36.10
2018-12-29T11:58:17.122Z,36.30
2018-12-29T12:00:46.560Z,37.60
2018-12-29T12:03:16.041Z,43.03
2018-12-29T12:05:45.480Z,38.70
2018-12-29T12:08:14.938Z,37.27
2018-12-29T12:10:44.480Z,41.17
2018-12-29T12:13:13.925Z,37.20
2018-12-29T12:15:43.349Z,37.47
2018-12-29T12:18:13.496Z,35.67
2018-12-29T12:20:42.946Z,36.33
2018-12-29T12:23:12.399Z,35.87
2018-12-29T12:25:41.893Z,33.20
2018-12-29T12:28:11.334Z,38.37
2018-12-29T12:30:40.779Z,46.77
2018-12-29T12:33:10.949Z,39.60
2018-12-29T12:35:40.360Z,42.53
2018-12-29T12:38:10.309Z,38.77
2018-12-29T12:40:39.823Z,40.40
2018-12-29T12:43:09.294Z,44.33
2018-12-29T12:45:39.159Z,45.00
2018-12-29T12:48:08.653Z,44.57
2018-12-29T12:50:38.099Z,42.40
2018-12-29T12:53:07.521Z,42.77
2018-12-29T12:55:37.258Z,44.63
2018-12-29T12:58:07.211Z,43.90
2018-12-29T13:00:37.061Z,42.57
2018-12-29T13:03:07.033Z,43.60
2018-12-29T13:05:36.469Z,41.63
2018-12-29T13:08:06.209Z,43.57
2018-12-29T13:10:35.672Z,40.17
2018-12-29T13:13:05.146Z,41.57
2018-12-29T13:15:34.566Z,39.77
2018-12-29T13:18:04.065Z,42.03
2018-12-29T13:20:33.460Z,68.83
2018-12-29T13:23:02.877Z,58.40
2018-12-29T13:25:32.385Z,52.03
2018-12-29T13:28:01.769Z,64.70
2018-12-29T13:30:31.210Z,40.87
2018-12-29T13:33:00.720Z,42.43
2018-12-29T13:35:30.155Z,41.90
2018-12-29T13:37:59.629Z,46.20
2018-12-29T13:40:29.127Z,43.80
2018-12-29T13:42:58.842Z,47.17
2018-12-29T13:45:28.211Z,43.03
2018-12-29T13:47:57.689Z,49.80
2018-12-29T13:50:27.171Z,49.37
2018-12-29T13:52:56.551Z,49.47
2018-12-29T13:55:26.031Z,49.00
2018-12-29T13:57:55.489Z,51.70
2018-12-29T14:00:24.944Z,51.60
2018-12-29T14:02:54.425Z,54.57
2018-12-29T14:05:23.834Z,51.17
2018-12-29T14:07:53.270Z,52.93
2018-12-29T14:10:22.727Z,51.33
2018-12-29T14:12:52.179Z,53.33
2018-12-29T14:15:21.589Z,50.97
2018-12-29T14:17:51.069Z,51.13
2018-12-29T14:20:20.532Z,51.50
2018-12-29T14:22:49.967Z,50.60
2018-12-29T14:25:19.507Z,53.23
2018-12-29T14:27:48.944Z,50.90
2018-12-29T14:30:18.387Z,72.70
2018-12-29T14:32:47.941Z,53.47
2018-12-29T14:35:17.380Z,50.53
2018-12-29T14:37:46.897Z,51.80
2018-12-29T14:40:16.873Z,48.93
2018-12-29T14:42:46.311Z,50.70
2018-12-29T14:45:15.724Z,53.37
2018-12-29T14:47:45.213Z,54.83
2018-12-29T14:50:14.626Z,54.60
2018-12-29T14:52:44.081Z,50.53
2018-12-29T14:55:13.875Z,51.90
2018-12-29T14:57:43.295Z,57.13
2018-12-29T15:00:12.729Z,82.80
2018-12-29T15:02:42.193Z,59.80
2018-12-29T15:05:11.621Z,54.77
2018-12-29T15:07:41.079Z,57.27
2018-12-29T15:10:10.572Z,61.60
2018-12-29T15:12:39.982Z,59.43
2018-12-29T15:15:10.079Z,62.80
2018-12-29T15:17:39.517Z,73.17
2018-12-29T15:20:09.539Z,57.53
2018-12-29T15:22:39.046Z,53.57
2018-12-29T15:25:08.839Z,51.67
2018-12-29T15:27:38.657Z,55.17
2018-12-29T15:30:08.080Z,55.13
2018-12-29T15:32:37.551Z,54.37
2018-12-29T15:35:07.519Z,59.03
2018-12-29T15:37:36.947Z,63.43
2018-12-29T15:40:06.580Z,64.13
2018-12-29T15:42:36.022Z,71.87
2018-12-29T15:45:05.805Z,87.47
2018-12-29T15:47:35.289Z,73.57
2018-12-29T15:50:04.794Z,85.90
2018-12-29T15:52:34.220Z,88.70
2018-12-29T15:55:03.697Z,77.37
2018-12-29T15:57:33.130Z,80.07
2018-12-29T16:00:02.681Z,76.63
2018-12-29T16:02:32.160Z,61.47
2018-12-29T16:05:01.913Z,59.17
2018-12-29T16:07:31.343Z,55.70
2018-12-29T16:10:00.840Z,57.30
2018-12-29T16:12:30.296Z,58.70
2018-12-29T16:14:59.733Z,63.20
2018-12-29T16:17:29.208Z,68.27
2018-12-29T16:19:59.264Z,63.47
2018-12-29T16:22:28.719Z,62.37
2018-12-29T16:24:58.243Z,63.57
2018-12-29T16:27:27.721Z,73.00
2018-12-29T16:29:57.120Z,74.80
2018-12-29T16:32:26.597Z,67.97
2018-12-29T16:34:56.087Z,62.53
2018-12-29T16:37:25.494Z,66.37
2018-12-29T16:39:54.960Z,61.23
2018-12-29T16:42:24.723Z,62.20
2018-12-29T16:44:54.191Z,65.73
2018-12-29T16:47:23.684Z,64.67
2018-12-29T16:49:53.146Z,65.10
2018-12-29T16:52:23.462Z,60.90
2018-12-29T16:54:53.377Z,62.60
2018-12-29T16:57:22.954Z,61.43
2018-12-29T16:59:52.347Z,64.57
2018-12-29T17:02:21.953Z,62.80
2018-12-29T17:04:51.404Z,62.67
2018-12-29T17:07:20.864Z,61.30
2018-12-29T17:09:50.384Z,59.20
2018-12-29T17:12:20.324Z,59.70
2018-12-29T17:14:49.759Z,56.13
2018-12-29T17:17:19.288Z,57.30
2018-12-29T17:19:48.775Z,53.60
2018-12-29T17:22:18.212Z,51.27
2018-12-29T17:24:47.761Z,50.13
2018-12-29T17:27:17.171Z,52.90
2018-12-29T17:29:46.607Z,56.07
2018-12-29T17:32:16.113Z,48.40
2018-12-29T17:34:45.534Z,50.67
2018-12-29T17:37:14.984Z,50.80
2018-12-29T17:39:44.874Z,48.20
2018-12-29T17:42:14.332Z,47.27
2018-12-29T17:44:43.805Z,47.40
2018-12-29T17:47:13.278Z,48.50
2018-12-29T17:49:42.706Z,48.87
2018-12-29T17:52:12.134Z,49.03
2018-12-29T17:54:41.650Z,49.33
2018-12-29T17:57:11.076Z,59.17
2018-12-29T17:59:40.519Z,56.80
2018-12-29T18:02:10.027Z,58.50
2018-12-29T18:04:39.457Z,58.90
2018-12-29T18:07:08.896Z,54.47
2018-12-29T18:09:38.392Z,55.33
2018-12-29T18:12:07.800Z,54.67
2018-12-29T18:14:37.270Z,52.57
2018-12-29T18:17:06.704Z,47.93
2018-12-29T18:19:36.167Z,48.70
2018-12-29T18:22:05.916Z,47.83
2018-12-29T18:24:35.342Z,45.27
2018-12-29T18:27:04.775Z,43.77
2018-12-29T18:29:34.220Z,45.07
2018-12-29T18:32:03.683Z,43.30
2018-12-29T18:34:33.706Z,42.20
2018-12-29T18:37:03.183Z,40.40
2018-12-29T18:39:32.669Z,40.10
2018-12-29T18:42:02.099Z,42.10
2018-12-29T18:44:31.518Z,40.53
2018-12-29T18:47:01.022Z,42.17
2018-12-29T18:49:38.273Z,41.33
2018-12-29T18:52:01.868Z,39.67
2018-12-29T18:54:31.389Z,38.97
2018-12-29T18:57:00.822Z,40.40
2018-12-29T18:59:30.219Z,38.63
2018-12-29T19:02:00.310Z,40.43
2018-12-29T19:04:29.742Z,38.80
2018-12-29T19:06:59.150Z,38.80
2018-12-29T19:09:28.598Z,38.47
2018-12-29T19:11:58.051Z,40.37
2018-12-29T19:14:27.500Z,37.63
2018-12-29T19:16:56.989Z,37.50
2018-12-29T19:19:26.952Z,37.50
2018-12-29T19:21:56.395Z,38.57
2018-12-29T19:24:25.924Z,39.17
2018-12-29T19:26:55.333Z,40.33
2018-12-29T19:29:24.793Z,36.53
2018-12-29T19:31:54.686Z,38.70
2018-12-29T19:34:24.505Z,37.00
2018-12-29T19:36:53.946Z,38.73
2018-12-29T19:39:23.842Z,38.20
2018-12-29T19:41:55.483Z,39.80
2018-12-29T19:44:24.420Z,37.53
2018-12-29T19:46:54.509Z,39.50
2018-12-29T19:49:23.960Z,40.73
2018-12-29T19:51:53.411Z,97.07
2018-12-29T19:54:26.373Z,126.73
2018-12-29T19:56:56.230Z,105.60
2018-12-29T19:59:25.885Z,94.07
2018-12-29T20:01:55.384Z,45.37
2018-12-29T20:04:24.833Z,38.80
2018-12-29T20:06:54.674Z,41.03
2018-12-29T20:09:24.260Z,43.47
2018-12-29T20:11:54.073Z,44.53
2018-12-29T20:14:24.351Z,48.07
2018-12-29T20:16:54.167Z,52.40
2018-12-29T20:19:23.608Z,46.63
2018-12-29T20:21:53.086Z,49.90
2018-12-29T20:24:22.899Z,49.30
2018-12-29T20:26:52.351Z,41.73
2018-12-29T20:29:21.760Z,41.57
2018-12-29T20:31:51.232Z,43.30
2018-12-29T20:34:20.652Z,41.90
2018-12-29T20:36:50.642Z,42.10
2018-12-29T20:39:20.143Z,42.87
2018-12-29T20:41:49.561Z,46.07
2018-12-29T20:44:18.966Z,48.87
2018-12-29T20:46:48.704Z,51.90
2018-12-29T20:49:18.600Z,53.57
2018-12-29T20:51:48.025Z,55.57
2018-12-29T20:54:17.504Z,49.63
2018-12-29T20:56:46.955Z,45.70
2018-12-29T20:59:16.381Z,41.43
2018-12-29T21:01:46.353Z,47.00
2018-12-29T21:04:15.856Z,50.73
2018-12-29T21:06:45.328Z,56.23
2018-12-29T21:09:14.777Z,53.83
2018-12-29T21:11:44.206Z,48.80
2018-12-29T21:14:13.645Z,45.63
2018-12-29T21:16:43.103Z,41.30
2018-12-29T21:19:12.567Z,41.67
2018-12-29T21:21:42.009Z,38.17
2018-12-29T21:24:12.422Z,35.67
2018-12-29T21:26:42.096Z,32.37
2018-12-29T21:29:11.499Z,32.33
2018-12-29T21:31:40.963Z,32.93
2018-12-29T21:34:10.401Z,30.27
2018-12-29T21:36:39.839Z,29.37
2018-12-29T21:39:09.279Z,28.20
2018-12-29T21:41:38.709Z,29.20
2018-12-29T21:44:08.162Z,29.93
2018-12-29T21:46:37.635Z,30.37
2018-12-29T21:49:07.045Z,26.30
2018-12-29T21:51:36.553Z,27.73
2018-12-29T21:54:06.279Z,30.43
2018-12-29T21:56:35.764Z,30.60
2018-12-29T21:59:05.191Z,33.53
2018-12-29T22:01:34.661Z,31.83
2018-12-29T22:04:04.119Z,27.60
2018-12-29T22:06:33.976Z,26.23
2018-12-29T22:09:04.548Z,28.57
2018-12-29T22:11:34.014Z,30.40
2018-12-29T22:14:04.325Z,30.10
2018-12-29T22:16:33.836Z,27.37
2018-12-29T22:19:03.863Z,28.43
2018-12-29T22:21:33.389Z,30.90
2018-12-29T22:24:02.883Z,32.60
2018-12-29T22:26:32.373Z,34.40
2018-12-29T22:29:01.824Z,31.47
2018-12-29T22:31:32.955Z,28.60
2018-12-29T22:34:02.438Z,24.13
2018-12-29T22:36:31.869Z,21.30
2018-12-29T22:39:01.373Z,22.97
2018-12-29T22:41:30.815Z,23.40
2018-12-29T22:44:00.571Z,22.37
2018-12-29T22:46:30.059Z,19.27
2018-12-29T22:48:59.481Z,18.93
2018-12-29T22:51:28.947Z,19.13
2018-12-29T22:53:58.472Z,20.13
2018-12-29T22:56:28.535Z,20.20
2018-12-29T22:58:57.950Z,23.00
2018-12-29T23:01:27.570Z,22.17
2018-12-29T23:03:57.007Z,31.80
2018-12-29T23:06:26.495Z,31.73
2018-12-29T23:08:55.962Z,33.37
2018-12-29T23:11:25.400Z,41.23
2018-12-29T23:13:54.810Z,40.93
2018-12-29T23:16:24.280Z,34.77
2018-12-29T23:18:54.131Z,34.80
2018-12-29T23:21:23.664Z,41.77
2018-12-29T23:23:53.128Z,39.70
2018-12-29T23:26:22.602Z,40.20
2018-12-29T23:28:52.002Z,44.07
2018-12-29T23:31:21.441Z,48.73
2018-12-29T23:33:50.939Z,47.97
2018-12-29T23:36:21.072Z,46.00
2018-12-29T23:38:50.557Z,43.20
2018-12-29T23:41:20.007Z,48.80
2018-12-29T23:43:49.850Z,44.77
2018-12-29T23:46:19.363Z,37.23
2018-12-29T23:48:48.898Z,35.20
2018-12-29T23:51:18.319Z,30.00
2018-12-29T23:53:47.880Z,31.53
2018-12-29T23:56:17.948Z,21.50
2018-12-29T23:58:47.385Z,18.10
